Highmore, South Dakota
Current Conditions -  °F | °C
As of 2:53 AM on Sunday 23 Nov 2014 (Local Time) from KPIR Reporting Station
Overcast Overcast  
Wind Chill: 29°   Ceiling: 5000
Heat Index: 40°   Visibility: 10mi
Dew Point: 37°   Wind: 24mph
Humidity: 89%   Direction: 320°NW
Pressure: 29.46"   Gusts: 31mph
Location:  44.52°N, 99.44°W
Report Text: KPIR 230853Z AUTO 32021G27KT 10SM FEW037 BKN050 OVC070 04/03 A2946 RMK AO2 PK WND 32027/0853 SLP984 60000 T00440028 51017
Loading
Personal Weather Stations






























Interactive Weather Map New forecast layout! Learn more

10-Day Weather Forecast

Advertisements
Track Severe Weather on mobile